createdAt,value
2019-02-17T00:01:38.050Z,25.10
2019-02-17T00:04:08.531Z,25.50
2019-02-17T00:06:38.154Z,25.53
2019-02-17T00:09:10.209Z,24.37
2019-02-17T00:11:39.511Z,25.20
2019-02-17T00:14:15.024Z,25.13
2019-02-17T00:16:44.513Z,25.67
2019-02-17T00:19:14.159Z,25.07
2019-02-17T00:21:43.570Z,24.57
2019-02-17T00:24:13.030Z,23.40
2019-02-17T00:26:42.192Z,22.60
2019-02-17T00:29:23.241Z,23.73
2019-02-17T00:31:52.610Z,23.37
2019-02-17T00:34:22.943Z,23.43
2019-02-17T00:36:52.641Z,23.00
2019-02-17T00:39:21.947Z,21.53
2019-02-17T00:41:51.251Z,22.63
2019-02-17T00:44:27.549Z,23.07
2019-02-17T00:46:57.194Z,25.20
2019-02-17T00:49:26.786Z,22.63
2019-02-17T00:51:56.047Z,24.03
2019-02-17T00:54:25.548Z,23.70
2019-02-17T00:56:55.035Z,24.03
2019-02-17T00:59:28.673Z,24.37
2019-02-17T01:01:58.540Z,24.80
2019-02-17T01:04:28.063Z,24.47
2019-02-17T01:06:58.486Z,24.40
2019-02-17T01:09:27.894Z,24.50
2019-02-17T01:11:59.054Z,24.23
2019-02-17T01:14:28.254Z,23.63
2019-02-17T01:16:57.926Z,23.60
2019-02-17T01:19:27.159Z,25.00
2019-02-17T01:21:56.761Z,24.07
2019-02-17T01:24:26.175Z,25.37
2019-02-17T01:26:55.687Z,23.90
2019-02-17T01:29:25.219Z,24.33
2019-02-17T01:31:55.490Z,24.23
2019-02-17T01:34:25.802Z,22.23
2019-02-17T01:36:54.985Z,23.00
2019-02-17T01:39:24.457Z,24.03
2019-02-17T01:41:54.068Z,23.63
2019-02-17T01:44:23.465Z,23.03
2019-02-17T01:46:52.928Z,22.10
2019-02-17T01:49:24.488Z,23.57
2019-02-17T01:51:54.836Z,23.37
2019-02-17T01:54:24.631Z,22.80
2019-02-17T01:56:53.830Z,23.40
2019-02-17T01:59:30.856Z,22.80
2019-02-17T02:02:00.621Z,24.30
2019-02-17T02:04:29.851Z,24.07
2019-02-17T02:06:59.242Z,24.30
2019-02-17T02:09:28.727Z,23.97
2019-02-17T02:11:58.426Z,24.03
2019-02-17T02:14:27.911Z,23.17
2019-02-17T02:16:57.235Z,23.80
2019-02-17T02:19:26.462Z,24.20
2019-02-17T02:21:55.855Z,24.97
2019-02-17T02:24:25.341Z,23.73
2019-02-17T02:26:56.487Z,24.47
2019-02-17T02:29:25.684Z,22.50
2019-02-17T02:31:55.092Z,24.60
2019-02-17T02:34:24.263Z,24.33
2019-02-17T02:36:53.716Z,24.07
2019-02-17T02:39:23.187Z,24.27
2019-02-17T02:41:53.560Z,24.90
2019-02-17T02:44:23.873Z,24.33
2019-02-17T02:46:53.342Z,24.93
2019-02-17T02:49:24.746Z,29.02
2019-02-17T02:51:54.024Z,26.33
2019-02-17T02:54:23.581Z,24.47
2019-02-17T02:56:52.998Z,23.63
2019-02-17T02:59:23.363Z,24.73
2019-02-17T03:01:52.838Z,23.90
2019-02-17T03:04:21.991Z,25.17
2019-02-17T03:06:53.247Z,23.77
2019-02-17T03:09:23.068Z,25.47
2019-02-17T03:11:52.504Z,23.67
2019-02-17T03:14:24.937Z,24.23
2019-02-17T03:16:54.359Z,24.10
2019-02-17T03:19:24.762Z,26.03
2019-02-17T03:21:53.960Z,24.87
2019-02-17T03:24:24.270Z,24.57
2019-02-17T03:26:55.758Z,23.80
2019-02-17T03:29:25.234Z,25.87
2019-02-17T03:31:54.827Z,24.37
2019-02-17T03:34:24.188Z,25.17
2019-02-17T03:36:53.394Z,24.57
2019-02-17T03:39:22.794Z,25.00
2019-02-17T03:41:52.370Z,24.10
2019-02-17T03:44:21.962Z,25.73
2019-02-17T03:46:51.582Z,25.17
2019-02-17T03:49:20.743Z,25.33
2019-02-17T03:51:49.931Z,25.37
2019-02-17T03:54:19.405Z,25.90
2019-02-17T03:56:49.757Z,25.00
2019-02-17T03:59:19.274Z,24.73
2019-02-17T04:01:55.318Z,25.60
2019-02-17T04:04:26.478Z,25.17
2019-02-17T04:06:55.945Z,24.17
2019-02-17T04:09:25.551Z,25.23
2019-02-17T04:11:54.988Z,25.83
2019-02-17T04:14:24.517Z,26.20
2019-02-17T04:16:54.883Z,25.93
2019-02-17T04:19:24.386Z,26.20
2019-02-17T04:21:53.815Z,26.17
2019-02-17T04:24:23.003Z,25.00
2019-02-17T04:26:52.443Z,26.13
2019-02-17T04:29:21.923Z,25.97
2019-02-17T04:31:51.416Z,28.40
2019-02-17T04:34:26.674Z,27.50
2019-02-17T04:36:56.220Z,25.93
2019-02-17T04:39:25.661Z,27.77
2019-02-17T04:41:54.917Z,27.10
2019-02-17T04:44:24.286Z,26.50
2019-02-17T04:46:54.623Z,27.50
2019-02-17T04:49:24.131Z,27.80
2019-02-17T04:51:53.589Z,26.13
2019-02-17T04:54:23.078Z,27.03
2019-02-17T04:56:52.300Z,27.80
2019-02-17T04:59:21.716Z,28.53
2019-02-17T05:01:52.027Z,29.33
2019-02-17T05:04:21.207Z,29.97
2019-02-17T05:06:50.709Z,28.60
2019-02-17T05:09:20.957Z,30.50
2019-02-17T05:11:50.142Z,29.33
2019-02-17T05:14:19.570Z,29.00
2019-02-17T05:16:51.111Z,27.83
2019-02-17T05:19:22.289Z,27.17
2019-02-17T05:21:51.753Z,29.63
2019-02-17T05:24:22.902Z,29.27
2019-02-17T05:26:53.264Z,30.03
2019-02-17T05:29:22.762Z,28.97
2019-02-17T05:31:52.245Z,28.60
2019-02-17T05:34:21.777Z,29.63
2019-02-17T05:36:51.248Z,29.37
2019-02-17T05:39:20.413Z,29.00
2019-02-17T05:41:49.879Z,30.63
2019-02-17T05:44:25.928Z,29.43
2019-02-17T05:46:55.444Z,29.10
2019-02-17T05:49:25.007Z,27.37
2019-02-17T05:51:54.486Z,30.47
2019-02-17T05:54:24.763Z,29.73
2019-02-17T05:56:55.093Z,31.67
2019-02-17T05:59:25.525Z,31.23
2019-02-17T06:01:55.019Z,29.93
2019-02-17T06:04:24.593Z,28.47
2019-02-17T06:06:54.070Z,29.57
2019-02-17T06:09:23.916Z,29.47
2019-02-17T06:11:53.616Z,28.43
2019-02-17T06:14:22.829Z,30.47
2019-02-17T06:16:51.994Z,30.67
2019-02-17T06:19:22.176Z,31.60
2019-02-17T06:21:51.361Z,31.20
2019-02-17T06:24:20.851Z,29.80
2019-02-17T06:26:52.030Z,30.43
2019-02-17T06:29:21.517Z,31.60
2019-02-17T06:31:50.665Z,31.30
2019-02-17T06:34:21.016Z,32.10
2019-02-17T06:36:50.445Z,31.20
2019-02-17T06:39:32.448Z,31.37
2019-02-17T06:42:03.797Z,30.80
2019-02-17T06:44:33.558Z,30.13
2019-02-17T06:47:05.697Z,30.40
2019-02-17T06:49:35.322Z,31.70
2019-02-17T06:52:04.818Z,29.83
2019-02-17T06:54:35.026Z,32.10
2019-02-17T06:57:06.153Z,30.87
2019-02-17T06:59:35.390Z,32.07
2019-02-17T07:02:04.850Z,31.13
2019-02-17T07:04:39.708Z,29.80
2019-02-17T07:07:09.163Z,30.57
2019-02-17T07:09:38.610Z,29.67
2019-02-17T07:12:08.244Z,30.80
2019-02-17T07:14:38.397Z,30.90
2019-02-17T07:17:08.587Z,28.87
2019-02-17T07:19:37.840Z,30.23
2019-02-17T07:22:07.345Z,30.87
2019-02-17T07:24:36.598Z,29.67
2019-02-17T07:27:05.962Z,29.77
2019-02-17T07:29:35.123Z,30.20
2019-02-17T07:32:04.586Z,29.90
2019-02-17T07:34:34.169Z,30.97
2019-02-17T07:37:04.523Z,30.87
2019-02-17T07:39:34.094Z,31.83
2019-02-17T07:42:03.400Z,30.90
2019-02-17T07:44:33.278Z,30.37
2019-02-17T07:47:02.472Z,30.07
2019-02-17T07:49:31.973Z,31.37
2019-02-17T07:52:02.383Z,32.27
2019-02-17T07:54:31.809Z,33.27
2019-02-17T07:57:01.374Z,31.07
2019-02-17T07:59:30.753Z,31.73
2019-02-17T08:02:00.292Z,31.17
2019-02-17T08:04:29.788Z,32.27
2019-02-17T08:06:59.250Z,32.23
2019-02-17T08:09:29.986Z,32.80
2019-02-17T08:11:59.134Z,32.77
2019-02-17T08:14:28.590Z,32.60
2019-02-17T08:16:58.023Z,31.87
2019-02-17T08:19:27.322Z,31.90
2019-02-17T08:21:56.712Z,32.57
2019-02-17T08:24:25.979Z,31.77
2019-02-17T08:26:55.312Z,30.83
2019-02-17T08:29:25.654Z,32.20
2019-02-17T08:31:56.248Z,30.70
2019-02-17T08:34:25.871Z,30.47
2019-02-17T08:36:55.375Z,31.27
2019-02-17T08:39:24.933Z,30.77
2019-02-17T08:41:54.385Z,31.00
2019-02-17T08:44:23.546Z,31.13
2019-02-17T08:46:53.019Z,30.83
2019-02-17T08:49:22.504Z,29.67
2019-02-17T08:51:51.659Z,28.63
2019-02-17T08:54:21.166Z,30.83
2019-02-17T08:56:50.595Z,32.87
2019-02-17T08:59:20.976Z,30.20
2019-02-17T09:01:50.597Z,31.33
2019-02-17T09:04:22.809Z,31.20
2019-02-17T09:06:52.311Z,30.53
2019-02-17T09:09:21.849Z,30.07
2019-02-17T09:11:51.323Z,30.87
2019-02-17T09:14:22.459Z,30.23
2019-02-17T09:16:51.648Z,30.70
2019-02-17T09:19:21.120Z,31.17
2019-02-17T09:21:50.559Z,30.13
2019-02-17T09:24:19.752Z,30.53
2019-02-17T09:26:48.920Z,30.63
2019-02-17T09:29:20.348Z,30.73
2019-02-17T09:31:50.012Z,30.30
2019-02-17T09:34:19.334Z,31.37
2019-02-17T09:36:48.834Z,33.10
2019-02-17T09:39:19.993Z,31.97
2019-02-17T09:41:49.556Z,30.90
2019-02-17T09:44:18.989Z,33.70
2019-02-17T09:46:48.180Z,32.20
2019-02-17T09:49:17.592Z,32.30
2019-02-17T09:51:49.518Z,32.20
2019-02-17T09:54:18.721Z,29.97
2019-02-17T09:56:48.185Z,30.97
2019-02-17T09:59:17.808Z,31.13
2019-02-17T10:01:47.219Z,32.30
2019-02-17T10:04:16.653Z,30.17
2019-02-17T10:06:46.996Z,28.57
2019-02-17T10:09:16.557Z,29.13
2019-02-17T10:11:46.033Z,29.27
2019-02-17T10:14:15.512Z,29.10
2019-02-17T10:16:45.988Z,29.43
2019-02-17T10:19:15.335Z,29.53
2019-02-17T10:21:45.739Z,30.23
2019-02-17T10:24:15.195Z,29.97
2019-02-17T10:26:44.671Z,29.50
2019-02-17T10:29:13.822Z,30.17
2019-02-17T10:31:44.937Z,29.43
2019-02-17T10:34:14.685Z,30.00
2019-02-17T10:36:43.956Z,29.00
2019-02-17T10:39:13.581Z,29.37
2019-02-17T10:41:42.932Z,28.27
2019-02-17T10:44:12.423Z,29.07
2019-02-17T10:46:41.614Z,28.53
2019-02-17T10:49:11.027Z,25.83
2019-02-17T10:51:40.195Z,27.43
2019-02-17T10:54:09.755Z,27.37
2019-02-17T10:56:39.137Z,26.00
2019-02-17T10:59:08.307Z,26.90
2019-02-17T11:01:37.776Z,26.13
2019-02-17T11:04:08.877Z,26.37
2019-02-17T11:06:38.427Z,25.03
2019-02-17T11:09:10.408Z,25.20
2019-02-17T11:11:40.015Z,23.43
2019-02-17T11:14:09.379Z,24.87
2019-02-17T11:16:39.066Z,24.43
2019-02-17T11:19:11.576Z,17.67
2019-02-17T11:21:42.247Z,17.73
2019-02-17T11:24:11.531Z,16.07
2019-02-17T11:26:43.514Z,14.67
2019-02-17T11:29:26.095Z,14.57
2019-02-17T11:31:57.613Z,12.90
2019-02-17T11:34:27.942Z,12.00
2019-02-17T11:36:57.488Z,12.87
2019-02-17T11:39:29.969Z,13.70
2019-02-17T11:41:59.333Z,13.47
2019-02-17T11:44:28.950Z,12.63
2019-02-17T11:47:01.016Z,11.87
2019-02-17T11:49:31.134Z,11.37
2019-02-17T11:52:00.677Z,10.53
2019-02-17T11:54:32.335Z,11.50
2019-02-17T11:57:01.678Z,11.53
2019-02-17T11:59:32.345Z,10.90
2019-02-17T12:02:01.565Z,10.60
2019-02-17T12:04:31.308Z,11.47
2019-02-17T12:07:00.632Z,11.00
2019-02-17T12:09:30.866Z,12.90
2019-02-17T12:12:00.368Z,13.47
2019-02-17T12:14:33.671Z,9.53
2019-02-17T12:17:03.135Z,9.57
2019-02-17T12:19:32.942Z,10.67
2019-02-17T12:22:03.787Z,11.13
2019-02-17T12:24:35.123Z,10.73
2019-02-17T12:27:14.708Z,11.03
2019-02-17T12:29:46.078Z,10.93
2019-02-17T12:32:15.313Z,13.17
2019-02-17T12:34:47.028Z,14.03
2019-02-17T12:37:17.514Z,14.80
2019-02-17T12:39:49.569Z,14.93
2019-02-17T12:42:19.024Z,15.63
2019-02-17T12:44:48.514Z,17.50
2019-02-17T12:47:18.017Z,15.53
2019-02-17T12:49:47.540Z,15.53
2019-02-17T12:52:19.554Z,15.63
2019-02-17T12:54:49.089Z,14.03
2019-02-17T12:57:18.595Z,12.40
2019-02-17T12:59:51.765Z,11.87
2019-02-17T13:02:37.276Z,11.77
2019-02-17T13:05:14.417Z,10.80
2019-02-17T13:07:45.636Z,10.67
2019-02-17T13:10:15.920Z,11.60
2019-02-17T13:12:45.080Z,10.57
2019-02-17T13:15:15.696Z,11.07
2019-02-17T13:17:44.845Z,11.00
2019-02-17T13:20:16.701Z,10.80
2019-02-17T13:22:46.053Z,10.33
2019-02-17T13:25:19.516Z,10.20
2019-02-17T13:27:49.012Z,10.73
2019-02-17T13:30:27.967Z,9.40
2019-02-17T13:32:57.426Z,9.70
2019-02-17T13:35:26.585Z,8.80
2019-02-17T13:37:56.088Z,9.63
2019-02-17T13:40:25.533Z,10.30
2019-02-17T13:42:56.689Z,9.37
2019-02-17T13:45:26.263Z,9.53
2019-02-17T13:47:55.702Z,10.03
2019-02-17T13:50:25.356Z,9.57
2019-02-17T13:52:54.747Z,9.10
2019-02-17T13:55:24.222Z,10.10
2019-02-17T13:57:53.378Z,7.50
2019-02-17T14:00:22.837Z,7.30
2019-02-17T14:02:52.328Z,8.80
2019-02-17T14:05:21.954Z,7.33
2019-02-17T14:07:51.399Z,6.30
2019-02-17T14:10:20.888Z,6.60
2019-02-17T14:12:52.398Z,6.23
2019-02-17T14:15:21.712Z,6.30
2019-02-17T14:17:51.013Z,7.03
2019-02-17T14:20:20.486Z,7.07
2019-02-17T14:22:51.684Z,8.30
2019-02-17T14:25:21.142Z,8.10
2019-02-17T14:27:51.468Z,8.10
2019-02-17T14:30:20.801Z,8.93
2019-02-17T14:32:50.072Z,10.97
2019-02-17T14:35:19.653Z,10.40
2019-02-17T14:37:49.139Z,9.57
2019-02-17T14:40:18.615Z,9.50
2019-02-17T14:42:48.101Z,10.37
2019-02-17T14:45:18.460Z,11.40
2019-02-17T14:47:47.999Z,13.70
2019-02-17T14:50:17.440Z,13.63
2019-02-17T14:52:52.695Z,12.03
2019-02-17T14:55:22.183Z,11.47
2019-02-17T14:57:51.686Z,11.90
2019-02-17T15:00:26.199Z,11.87
2019-02-17T15:02:57.664Z,14.00
2019-02-17T15:05:26.829Z,14.27
2019-02-17T15:07:57.158Z,16.53
2019-02-17T15:10:27.406Z,16.83
2019-02-17T15:12:58.983Z,16.93
2019-02-17T15:15:28.576Z,16.17
2019-02-17T15:17:58.819Z,17.33
2019-02-17T15:20:29.914Z,18.97
2019-02-17T15:23:00.283Z,14.43
2019-02-17T15:25:30.657Z,15.17
2019-02-17T15:28:00.336Z,14.90
2019-02-17T15:30:29.641Z,16.97
2019-02-17T15:33:03.954Z,17.47
2019-02-17T15:35:30.222Z,20.53
2019-02-17T15:38:01.424Z,23.73
2019-02-17T15:40:31.758Z,28.63
2019-02-17T15:43:01.218Z,30.13
2019-02-17T15:45:31.586Z,25.80
2019-02-17T15:48:01.039Z,13.37
2019-02-17T15:50:30.233Z,9.80
2019-02-17T15:52:59.667Z,9.30
2019-02-17T15:55:30.365Z,10.20
2019-02-17T15:57:59.884Z,9.93
2019-02-17T16:00:29.415Z,9.47
2019-02-17T16:02:59.849Z,9.70
2019-02-17T16:05:29.222Z,8.93
2019-02-17T16:07:58.427Z,10.20
2019-02-17T16:10:27.875Z,9.60
2019-02-17T16:12:57.330Z,10.20
2019-02-17T16:15:27.495Z,10.93
2019-02-17T16:17:58.049Z,10.07
2019-02-17T16:20:29.522Z,10.13
2019-02-17T16:23:03.649Z,10.17
2019-02-17T16:25:33.226Z,10.20
2019-02-17T16:28:03.364Z,10.33
2019-02-17T16:30:32.849Z,12.23
2019-02-17T16:33:02.010Z,11.97
2019-02-17T16:35:31.488Z,9.40
2019-02-17T16:38:01.012Z,10.60
2019-02-17T16:40:30.478Z,8.63
2019-02-17T16:43:00.057Z,9.40
2019-02-17T16:45:29.540Z,9.07
2019-02-17T16:47:58.998Z,8.70
2019-02-17T16:50:31.914Z,9.17
2019-02-17T16:53:01.387Z,8.33
2019-02-17T16:55:30.789Z,9.17
2019-02-17T16:58:08.058Z,8.60
2019-02-17T17:00:38.686Z,9.17
2019-02-17T17:03:09.224Z,8.93
2019-02-17T17:05:38.823Z,9.13
2019-02-17T17:08:09.377Z,9.30
2019-02-17T17:10:38.534Z,9.03
2019-02-17T17:13:08.048Z,10.83
2019-02-17T17:15:40.346Z,10.63
2019-02-17T17:18:09.517Z,10.83
2019-02-17T17:20:39.786Z,10.63
2019-02-17T17:23:10.926Z,11.03
2019-02-17T17:25:46.338Z,10.63
2019-02-17T17:28:16.492Z,11.00
2019-02-17T17:30:46.803Z,10.40
2019-02-17T17:33:16.047Z,11.07
2019-02-17T17:35:46.228Z,10.57
2019-02-17T17:38:15.395Z,11.33
2019-02-17T17:40:45.738Z,11.83
2019-02-17T17:43:17.199Z,11.07
2019-02-17T17:45:50.103Z,11.20
2019-02-17T17:48:19.493Z,10.70
2019-02-17T17:50:49.067Z,14.07
2019-02-17T17:53:18.531Z,12.67
2019-02-17T17:55:48.150Z,12.93
2019-02-17T17:58:17.909Z,13.03
2019-02-17T18:00:47.111Z,13.10
2019-02-17T18:03:16.545Z,11.53
2019-02-17T18:05:46.916Z,11.30
2019-02-17T18:08:16.389Z,11.03
2019-02-17T18:10:47.923Z,11.37
2019-02-17T18:13:18.274Z,12.40
2019-02-17T18:15:47.764Z,12.17
2019-02-17T18:18:18.064Z,11.43
2019-02-17T18:20:48.446Z,12.30
2019-02-17T18:23:17.923Z,12.17
2019-02-17T18:25:48.214Z,12.77
2019-02-17T18:28:17.391Z,13.97
2019-02-17T18:30:46.877Z,16.90
2019-02-17T18:33:16.311Z,19.73
2019-02-17T18:35:45.473Z,22.63
2019-02-17T18:38:14.953Z,23.03
2019-02-17T18:40:47.190Z,24.10
2019-02-17T18:43:15.567Z,26.53
2019-02-17T18:45:46.334Z,27.20
2019-02-17T18:48:15.884Z,26.73
2019-02-17T18:50:46.147Z,28.67
2019-02-17T18:53:15.738Z,29.80
2019-02-17T18:55:46.043Z,30.97
2019-02-17T18:58:17.999Z,38.80
2019-02-17T19:00:55.661Z,34.47
2019-02-17T19:03:25.942Z,45.60
2019-02-17T19:05:55.101Z,43.60
2019-02-17T19:08:24.596Z,39.33
2019-02-17T19:11:00.640Z,40.03
2019-02-17T19:13:31.355Z,37.47
2019-02-17T19:16:03.814Z,35.67
2019-02-17T19:18:39.071Z,35.77
2019-02-17T19:21:08.537Z,35.90
2019-02-17T19:23:40.036Z,36.77
2019-02-17T19:26:10.373Z,38.13
2019-02-17T19:28:40.678Z,39.13
2019-02-17T19:31:13.530Z,39.57
2019-02-17T19:33:42.982Z,41.47
2019-02-17T19:36:16.264Z,40.63
2019-02-17T19:38:48.995Z,39.97
2019-02-17T19:41:19.271Z,39.07
2019-02-17T19:43:49.568Z,49.47
2019-02-17T19:46:19.951Z,41.30
2019-02-17T19:48:50.249Z,40.07
2019-02-17T19:51:19.789Z,37.03
2019-02-17T19:53:51.383Z,34.17
2019-02-17T19:56:26.535Z,31.50
2019-02-17T19:58:56.018Z,31.17
2019-02-17T20:01:25.258Z,29.57
2019-02-17T20:03:57.102Z,30.00
2019-02-17T20:06:27.416Z,30.27
2019-02-17T20:08:57.834Z,30.97
2019-02-17T20:11:28.051Z,29.87
2019-02-17T20:13:57.206Z,30.00
2019-02-17T20:16:27.566Z,33.83
2019-02-17T20:19:04.034Z,27.80
2019-02-17T20:21:34.483Z,27.93
2019-02-17T20:24:03.783Z,27.63
2019-02-17T20:26:38.771Z,29.37
2019-02-17T20:29:08.151Z,34.73
2019-02-17T20:31:37.707Z,36.87
2019-02-17T20:34:07.141Z,49.77
2019-02-17T20:36:37.567Z,48.17
2019-02-17T20:39:07.668Z,44.97
2019-02-17T20:41:36.864Z,43.03
2019-02-17T20:44:07.249Z,44.10
2019-02-17T20:46:38.763Z,42.33
2019-02-17T20:49:08.325Z,42.73
2019-02-17T20:51:38.627Z,40.67
2019-02-17T20:54:08.150Z,38.50
2019-02-17T20:56:37.608Z,36.63
2019-02-17T20:59:07.116Z,37.67
2019-02-17T21:01:36.611Z,37.53
2019-02-17T21:04:05.840Z,38.83
2019-02-17T21:06:35.267Z,40.43
2019-02-17T21:09:06.342Z,38.03
2019-02-17T21:11:35.566Z,38.00
2019-02-17T21:14:05.125Z,39.90
2019-02-17T21:16:37.724Z,38.63
2019-02-17T21:19:07.355Z,37.90
2019-02-17T21:21:36.819Z,37.37
2019-02-17T21:24:06.325Z,37.60
2019-02-17T21:26:35.810Z,37.40
2019-02-17T21:29:06.201Z,35.53
2019-02-17T21:31:35.602Z,35.43
2019-02-17T21:34:05.171Z,34.97
2019-02-17T21:36:34.441Z,34.47
2019-02-17T21:39:05.054Z,34.53
2019-02-17T21:41:35.258Z,35.10
2019-02-17T21:44:04.626Z,35.97
2019-02-17T21:46:34.036Z,33.03
2019-02-17T21:49:03.346Z,35.93
2019-02-17T21:51:32.599Z,35.97
2019-02-17T21:54:02.848Z,34.47
2019-02-17T21:56:32.451Z,35.13
2019-02-17T21:59:01.811Z,33.70
2019-02-17T22:01:31.288Z,33.27
2019-02-17T22:04:00.816Z,34.63
2019-02-17T22:06:33.481Z,34.83
2019-02-17T22:09:01.450Z,35.33
2019-02-17T22:11:32.071Z,35.07
2019-02-17T22:14:01.333Z,32.57
2019-02-17T22:16:30.791Z,34.70
2019-02-17T22:19:00.282Z,33.67
2019-02-17T22:21:29.520Z,34.60
2019-02-17T22:23:58.907Z,36.33
2019-02-17T22:26:28.382Z,41.37
2019-02-17T22:28:57.583Z,44.10
2019-02-17T22:31:26.987Z,45.90
2019-02-17T22:33:56.148Z,45.67
2019-02-17T22:36:31.362Z,45.13
2019-02-17T22:39:01.664Z,46.63
2019-02-17T22:41:39.538Z,45.40
2019-02-17T22:44:09.675Z,44.07
2019-02-17T22:46:39.175Z,41.07
2019-02-17T22:49:08.411Z,45.80
2019-02-17T22:51:38.589Z,47.90
2019-02-17T22:54:07.758Z,48.53
2019-02-17T22:56:37.252Z,46.93
2019-02-17T22:59:07.526Z,47.67
2019-02-17T23:01:37.991Z,49.10
2019-02-17T23:04:08.235Z,51.17
2019-02-17T23:06:37.682Z,51.97
2019-02-17T23:09:08.708Z,50.50
2019-02-17T23:11:38.099Z,50.40
2019-02-17T23:14:07.568Z,50.97
2019-02-17T23:16:37.753Z,52.80
2019-02-17T23:19:08.928Z,51.90
2019-02-17T23:21:43.489Z,53.73
2019-02-17T23:24:17.008Z,51.27
2019-02-17T23:26:47.239Z,53.97
2019-02-17T23:29:16.395Z,53.83
2019-02-17T23:31:46.690Z,53.00
2019-02-17T23:34:16.175Z,54.27
2019-02-17T23:37:03.755Z,52.20
2019-02-17T23:39:27.050Z,53.37
2019-02-17T23:42:00.278Z,51.40
2019-02-17T23:44:30.954Z,50.73
2019-02-17T23:47:00.106Z,53.80
2019-02-17T23:49:38.198Z,55.63
2019-02-17T23:52:07.360Z,54.73
2019-02-17T23:54:36.781Z,57.20
2019-02-17T23:57:06.005Z,56.27
2019-02-17T23:59:37.927Z,55.50
